Time;durP1;ratioP1;P1;durP2;ratioP2;P2;SDS_P1;SDS_P2;PMS_P1;PMS_P2;Temp;Humidity;BMP_temperature;BMP_pressure;BME280_temperature;BME280_humidity;BME280_pressure;Samples;Min_cycle;Max_cycle;Signal;HPM_P1;HPM_P2
2023/04/04 00:01:43;;;;;;;;;;;;;;;13.19;57.37;93681.97;5029922;28;19948;-62
2023/04/04 00:04:10;;;;;;;;;;;;;;;13.20;57.70;93681.66;5030343;28;20036;-61
2023/04/04 00:06:37;;;;;;;;;;;;;;;13.38;56.88;93679.91;5029295;28;20002;-61
2023/04/04 00:09:03;;;;;;;;;;;;;;;13.32;57.89;93682.97;5030566;28;20033;-60
2023/04/04 00:11:30;;;;;;;;;;;;;;;13.29;57.35;93689.59;5029945;28;19941;-60
2023/04/04 00:13:57;;;;;;;;;;;;;;;13.40;56.90;93684.84;5030171;28;19946;-62
2023/04/04 00:16:24;;;;;;;;;;;;;;;13.56;56.89;93691.28;5029829;28;19948;-61
2023/04/04 00:18:51;;;;;;;;;;;;;;;13.59;56.58;93695.97;5030517;28;19929;-61
2023/04/04 00:21:17;;;;;;;;;;;;;;;13.59;55.63;93693.31;5029760;28;19944;-62
2023/04/04 00:23:44;;;;;;;;;;;;;;;13.53;56.54;93702.41;5030032;28;19931;-61
2023/04/04 00:26:11;;;;;;;;;;;;;;;13.61;56.11;93696.44;5028364;28;19987;-62
2023/04/04 00:28:38;;;;;;;;;;;;;;;13.48;56.30;93692.81;5018407;28;19968;-62
2023/04/04 00:31:06;;;;;;;;;;;;;;;13.43;56.93;93694.78;5029631;28;19964;-61
2023/04/04 00:33:33;;;;;;;;;;;;;;;13.36;56.93;93681.28;5030064;28;19953;-62
2023/04/04 00:35:59;;;;;;;;;;;;;;;13.37;56.64;93690.72;5029532;28;19948;-62
2023/04/04 00:38:28;;;;;;;;;;;;;;;13.41;57.05;93681.16;5029776;28;20462;-61
2023/04/04 00:40:55;;;;;;;;;;;;;;;13.45;56.67;93679.50;5029595;28;20387;-62
2023/04/04 00:43:22;;;;;;;;;;;;;;;13.27;57.73;93675.19;5030150;28;19948;-61
2023/04/04 00:45:50;;;;;;;;;;;;;;;13.38;57.22;93671.22;4998769;28;19950;-62
2023/04/04 00:48:19;;;;;;;;;;;;;;;13.61;56.30;93659.59;5011600;28;20086;-62
2023/04/04 00:50:46;;;;;;;;;;;;;;;13.53;56.59;93657.69;5029138;28;19976;-61
2023/04/04 00:53:12;;;;;;;;;;;;;;;13.52;56.82;93661.41;5029430;28;19954;-61
2023/04/04 00:55:39;;;;;;;;;;;;;;;13.39;57.20;93652.53;5029526;28;20054;-60
2023/04/04 00:58:07;;;;;;;;;;;;;;;13.46;57.33;93657.34;4999752;28;20401;-62
2023/04/04 01:00:35;;;;;;;;;;;;;;;13.57;56.97;93653.38;4998945;28;19955;-62
2023/04/04 01:03:04;;;;;;;;;;;;;;;13.54;57.24;93654.00;5029175;28;19982;-61
2023/04/04 01:05:31;;;;;;;;;;;;;;;13.66;56.88;93651.56;5029355;28;19976;-62
2023/04/04 01:07:59;;;;;;;;;;;;;;;13.72;56.56;93655.63;5029236;28;20153;-61
2023/04/04 01:10:29;;;;;;;;;;;;;;;13.75;56.98;93655.78;4998973;28;20451;-61
2023/04/04 01:12:57;;;;;;;;;;;;;;;13.68;56.76;93655.44;5010174;28;20082;-61
2023/04/04 01:15:24;;;;;;;;;;;;;;;13.79;56.38;93655.94;5004549;28;20039;-60
2023/04/04 01:17:54;;;;;;;;;;;;;;;13.84;56.31;93663.69;5002736;28;20561;-60
2023/04/04 01:20:23;;;;;;;;;;;;;;;13.70;56.41;93657.78;5015607;28;20021;-60
2023/04/04 01:22:54;;;;;;;;;;;;;;;13.17;58.12;93669.09;4998009;28;19992;-61
2023/04/04 01:25:30;;;;;;;;;;;;;;;13.45;57.82;93671.59;4995646;28;19999;-61
2023/04/04 01:28:02;;;;;;;;;;;;;;;13.14;58.24;93676.81;4993861;28;19965;-61
2023/04/04 01:30:35;;;;;;;;;;;;;;;13.42;57.66;93667.69;5002108;28;19960;-61
2023/04/04 01:33:12;;;;;;;;;;;;;;;13.39;57.79;93683.31;5008213;28;19957;-62
2023/04/04 01:35:45;;;;;;;;;;;;;;;13.08;58.06;93673.53;5011885;28;20492;-62
2023/04/04 01:38:20;;;;;;;;;;;;;;;12.73;60.06;93674.34;5004126;28;20007;-61
2023/04/04 01:40:51;;;;;;;;;;;;;;;13.31;58.40;93676.13;5005972;28;20042;-60
2023/04/04 01:43:19;;;;;;;;;;;;;;;13.32;58.33;93664.56;5010643;28;20047;-62
2023/04/04 01:45:46;;;;;;;;;;;;;;;13.31;57.78;93665.63;4998134;28;19951;-61
2023/04/04 01:48:15;;;;;;;;;;;;;;;13.35;58.09;93663.94;5010322;28;19955;-63
2023/04/04 01:50:46;;;;;;;;;;;;;;;13.66;57.02;93654.97;5005192;28;19952;-62
2023/04/04 01:53:13;;;;;;;;;;;;;;;13.51;57.34;93655.38;5008519;28;20038;-62
2023/04/04 01:55:40;;;;;;;;;;;;;;;13.63;57.74;93646.91;5004257;28;20300;-62
2023/04/04 01:58:06;;;;;;;;;;;;;;;13.55;57.79;93655.53;4990537;28;19929;-63
2023/04/04 02:00:33;;;;;;;;;;;;;;;13.62;57.75;93637.44;4991513;28;19949;-61
2023/04/04 02:03:02;;;;;;;;;;;;;;;13.63;57.34;93634.50;5003588;28;19965;-61
2023/04/04 02:05:29;;;;;;;;;;;;;;;13.48;57.92;93640.19;5027855;28;20412;-63
2023/04/04 02:07:56;;;;;;;;;;;;;;;13.60;56.87;93647.50;5028211;28;19952;-62
2023/04/04 02:10:31;;;;;;;;;;;;;;;13.45;57.73;93650.53;5010839;28;19945;-62
2023/04/04 02:12:58;;;;;;;;;;;;;;;13.44;57.24;93649.75;5027685;28;19950;-61
2023/04/04 02:15:25;;;;;;;;;;;;;;;13.44;57.48;93639.22;5010573;28;19943;-61
2023/04/04 02:17:52;;;;;;;;;;;;;;;13.40;57.45;93635.66;4999033;28;19951;-62
2023/04/04 02:20:19;;;;;;;;;;;;;;;13.34;57.54;93638.72;4991028;28;20049;-61
2023/04/04 02:22:49;;;;;;;;;;;;;;;13.56;56.49;93636.00;5020315;28;20482;-62
2023/04/04 02:25:17;;;;;;;;;;;;;;;13.40;56.75;93637.50;5004052;28;20340;-61
2023/04/04 02:27:43;;;;;;;;;;;;;;;13.49;56.26;93633.06;5023617;28;20017;-62
2023/04/04 02:30:10;;;;;;;;;;;;;;;13.52;56.09;93630.59;5032570;28;19952;-62
2023/04/04 02:32:37;;;;;;;;;;;;;;;13.49;56.04;93625.94;5031852;28;20349;-62
2023/04/04 02:35:05;;;;;;;;;;;;;;;13.61;56.35;93626.13;5014125;28;19957;-62
2023/04/04 02:37:32;;;;;;;;;;;;;;;13.48;55.73;93626.25;5013897;28;20002;-62
2023/04/04 02:40:02;;;;;;;;;;;;;;;13.16;56.34;93633.38;5005987;28;19945;-62
2023/04/04 02:42:31;;;;;;;;;;;;;;;13.40;55.54;93637.50;5000029;28;19965;-61
2023/04/04 02:44:58;;;;;;;;;;;;;;;13.11;56.63;93636.13;5014936;28;19948;-62
2023/04/04 02:47:25;;;;;;;;;;;;;;;12.91;57.71;93641.84;5003779;28;20045;-62
2023/04/04 02:49:53;;;;;;;;;;;;;;;12.97;57.55;93643.25;5006121;28;19945;-62
2023/04/04 02:52:21;;;;;;;;;;;;;;;12.54;58.85;93639.56;5013744;28;19954;-62
2023/04/04 02:54:48;;;;;;;;;;;;;;;12.84;57.89;93636.25;4981654;28;19949;-62
2023/04/04 02:57:27;;;;;;;;;;;;;;;12.99;57.59;93640.34;5008553;28;20057;-62
2023/04/04 02:59:53;;;;;;;;;;;;;;;13.10;57.74;93642.44;5019662;28;20510;-62
2023/04/04 03:02:22;;;;;;;;;;;;;;;13.12;57.74;93636.88;5031431;28;19953;-61
2023/04/04 03:04:49;;;;;;;;;;;;;;;13.37;57.44;93630.22;5030213;28;19959;-64
2023/04/04 03:07:16;;;;;;;;;;;;;;;13.39;57.27;93630.69;5023043;28;20012;-62
2023/04/04 03:09:44;;;;;;;;;;;;;;;13.32;57.32;93633.75;5005542;28;20450;-62
2023/04/04 03:12:11;;;;;;;;;;;;;;;13.40;57.11;93633.03;5006116;28;20046;-61
2023/04/04 03:14:37;;;;;;;;;;;;;;;13.59;56.57;93624.91;5026102;28;19949;-61
2023/04/04 03:17:05;;;;;;;;;;;;;;;13.52;57.37;93624.56;5031079;28;20535;-61
2023/04/04 03:19:32;;;;;;;;;;;;;;;13.28;58.09;93634.66;5013499;28;19984;-61
2023/04/04 03:21:58;;;;;;;;;;;;;;;13.47;57.50;93632.56;5030491;28;19955;-62
2023/04/04 03:24:25;;;;;;;;;;;;;;;13.54;56.65;93632.94;5030013;28;20319;-62
2023/04/04 03:26:52;;;;;;;;;;;;;;;13.64;57.21;93622.13;5005893;28;20051;-63
2023/04/04 03:29:19;;;;;;;;;;;;;;;13.62;56.83;93624.28;5017945;28;20370;-61
2023/04/04 03:31:46;;;;;;;;;;;;;;;13.80;56.55;93629.31;5013062;28;19981;-60
2023/04/04 03:34:13;;;;;;;;;;;;;;;13.74;56.79;93635.03;5031232;28;19955;-63
2023/04/04 03:36:41;;;;;;;;;;;;;;;13.26;58.56;93642.06;5013008;28;19955;-61
2023/04/04 03:39:08;;;;;;;;;;;;;;;13.48;57.63;93634.16;5030928;28;19949;-62
2023/04/04 03:41:34;;;;;;;;;;;;;;;13.70;57.05;93639.34;5030446;28;19953;-61
2023/04/04 03:44:02;;;;;;;;;;;;;;;13.69;56.45;93640.41;5030766;28;19956;-61
2023/04/04 03:46:29;;;;;;;;;;;;;;;13.25;58.20;93643.16;5012928;28;19953;-64
2023/04/04 03:48:58;;;;;;;;;;;;;;;13.37;57.80;93648.63;4999900;28;19969;-63
2023/04/04 03:51:26;;;;;;;;;;;;;;;13.52;57.52;93645.63;5002688;28;19996;-62
2023/04/04 03:53:53;;;;;;;;;;;;;;;13.59;57.41;93640.69;5006321;28;19951;-62
2023/04/04 03:56:20;;;;;;;;;;;;;;;13.71;57.62;93638.25;5018406;28;20453;-61
2023/04/04 03:58:47;;;;;;;;;;;;;;;13.77;56.85;93643.09;5013601;28;19964;-61
2023/04/04 04:01:17;;;;;;;;;;;;;;;13.76;57.03;93640.72;4994663;28;19953;-62
2023/04/04 04:03:45;;;;;;;;;;;;;;;13.77;57.00;93639.66;4999311;28;19950;-60
2023/04/04 04:06:12;;;;;;;;;;;;;;;13.77;57.06;93631.78;5022050;28;20127;-61
2023/04/04 04:08:39;;;;;;;;;;;;;;;13.85;56.69;93629.16;5026524;28;20017;-62
2023/04/04 04:11:06;;;;;;;;;;;;;;;13.81;57.37;93638.00;5017561;28;19961;-61
2023/04/04 04:13:34;;;;;;;;;;;;;;;13.80;57.24;93628.53;4999636;28;19952;-63
2023/04/04 04:16:02;;;;;;;;;;;;;;;13.56;57.92;93633.38;4998462;28;19951;-63
2023/04/04 04:18:29;;;;;;;;;;;;;;;13.74;56.87;93633.16;5009355;28;19958;-61
2023/04/04 04:20:58;;;;;;;;;;;;;;;13.97;56.02;93633.84;5012146;28;20408;-61
2023/04/04 04:23:25;;;;;;;;;;;;;;;13.94;56.38;93637.09;5000296;28;19940;-63
2023/04/04 04:25:52;;;;;;;;;;;;;;;14.00;56.90;93643.75;5009853;28;20058;-61
2023/04/04 04:28:24;;;;;;;;;;;;;;;13.89;56.89;93650.38;5013931;28;20361;-60
2023/04/04 04:31:06;;;;;;;;;;;;;;;13.86;56.52;93656.28;5004959;28;20405;-62
2023/04/04 04:33:40;;;;;;;;;;;;;;;13.77;57.31;93663.38;5025550;28;20003;-62
2023/04/04 04:36:07;;;;;;;;;;;;;;;13.92;56.07;93655.06;4993771;28;20008;-63
2023/04/04 04:38:48;;;;;;;;;;;;;;;14.01;56.28;93658.50;5012077;28;20356;-64
2023/04/04 04:41:15;;;;;;;;;;;;;;;14.08;56.78;93666.72;5008125;28;19947;-65
2023/04/04 04:43:46;;;;;;;;;;;;;;;14.09;56.64;93671.69;5004020;28;20689;-65
2023/04/04 04:46:13;;;;;;;;;;;;;;;14.08;56.65;93669.34;5009782;28;19954;-61
2023/04/04 04:48:40;;;;;;;;;;;;;;;14.11;56.42;93674.00;5011989;28;19933;-62
2023/04/04 04:51:09;;;;;;;;;;;;;;;14.03;56.47;93666.88;5009430;28;19942;-64
2023/04/04 04:53:41;;;;;;;;;;;;;;;13.87;57.16;93668.34;4998204;28;19940;-65
2023/04/04 04:56:08;;;;;;;;;;;;;;;13.98;57.65;93670.41;5010371;28;19963;-62
2023/04/04 04:58:39;;;;;;;;;;;;;;;14.01;57.11;93679.56;5011094;28;19960;-61
2023/04/04 05:01:08;;;;;;;;;;;;;;;14.06;56.53;93676.78;5022018;28;19948;-62
2023/04/04 05:03:38;;;;;;;;;;;;;;;14.24;56.21;93696.81;4995782;28;19976;-61
2023/04/04 05:06:08;;;;;;;;;;;;;;;14.37;55.86;93685.41;4982193;28;19966;-61
2023/04/04 05:08:36;;;;;;;;;;;;;;;14.37;56.05;93692.53;4990727;28;19950;-63
2023/04/04 05:11:14;;;;;;;;;;;;;;;14.34;55.79;93693.16;4991659;28;19945;-65
2023/04/04 05:13:41;;;;;;;;;;;;;;;14.20;56.34;93699.28;4976005;28;19949;-61
2023/04/04 05:16:08;;;;;;;;;;;;;;;14.22;56.04;93699.75;4983169;28;19925;-62
2023/04/04 05:18:35;;;;;;;;;;;;;;;14.02;56.46;93704.81;4992451;28;20082;-62
2023/04/04 05:21:07;;;;;;;;;;;;;;;13.82;57.34;93710.63;4991886;28;19951;-62
2023/04/04 05:23:34;;;;;;;;;;;;;;;13.71;57.35;93711.94;4979443;28;19940;-62
2023/04/04 05:26:01;;;;;;;;;;;;;;;13.94;56.92;93710.84;4997269;28;19946;-62
2023/04/04 05:28:33;;;;;;;;;;;;;;;14.14;56.37;93703.13;4985386;28;20049;-62
2023/04/04 05:31:02;;;;;;;;;;;;;;;14.37;56.07;93706.50;4972903;28;20052;-62
2023/04/04 05:33:31;;;;;;;;;;;;;;;14.44;55.97;93711.28;4995775;28;19951;-62
2023/04/04 05:36:11;;;;;;;;;;;;;;;14.06;56.23;93711.81;4988298;28;19979;-64
2023/04/04 05:39:03;;;;;;;;;;;;;;;13.77;56.35;93713.38;5008595;28;19950;-62
2023/04/04 05:41:32;;;;;;;;;;;;;;;13.97;57.17;93716.28;4990968;28;19948;-62
2023/04/04 05:44:07;;;;;;;;;;;;;;;14.15;55.92;93717.88;4980955;28;20262;-61
2023/04/04 05:46:34;;;;;;;;;;;;;;;14.25;55.96;93714.16;5008091;28;20058;-64
2023/04/04 05:49:02;;;;;;;;;;;;;;;14.22;56.09;93714.78;4978704;28;19954;-63
2023/04/04 05:51:30;;;;;;;;;;;;;;;14.31;55.70;93714.81;4990864;28;20031;-61
2023/04/04 05:54:06;;;;;;;;;;;;;;;14.29;55.45;93723.03;4991799;28;19993;-62
2023/04/04 05:56:34;;;;;;;;;;;;;;;14.02;56.01;93723.25;5007936;28;20408;-62
2023/04/04 05:59:03;;;;;;;;;;;;;;;13.71;57.25;93723.28;4979288;28;19953;-62
2023/04/04 06:01:36;;;;;;;;;;;;;;;13.77;56.86;93721.28;4991471;28;20046;-64
2023/04/04 06:04:09;;;;;;;;;;;;;;;13.54;56.98;93725.03;4981544;28;20407;-62
2023/04/04 06:06:36;;;;;;;;;;;;;;;13.88;56.16;93727.84;4977987;28;19939;-62
2023/04/04 06:09:03;;;;;;;;;;;;;;;14.09;56.88;93728.84;5009545;28;20051;-62
2023/04/04 06:11:31;;;;;;;;;;;;;;;13.95;56.93;93707.88;5007521;28;19954;-62
2023/04/04 06:14:04;;;;;;;;;;;;;;;13.87;57.63;93731.53;4985181;28;19969;-63
2023/04/04 06:16:31;;;;;;;;;;;;;;;13.68;57.17;93733.63;5002986;28;20428;-63
2023/04/04 06:18:58;;;;;;;;;;;;;;;14.00;56.39;93730.66;4991729;28;19958;-63
2023/04/04 06:21:25;;;;;;;;;;;;;;;13.76;57.06;93735.50;4976693;28;19951;-63
2023/04/04 06:23:52;;;;;;;;;;;;;;;14.02;56.90;93733.78;4980384;28;20379;-62
2023/04/04 06:26:19;;;;;;;;;;;;;;;13.83;56.69;93741.16;4991178;28;19951;-62
2023/04/04 06:28:49;;;;;;;;;;;;;;;14.12;55.90;93746.69;5009699;28;19947;-62
2023/04/04 06:31:21;;;;;;;;;;;;;;;14.49;54.95;93737.53;4987981;28;19940;-63
2023/04/04 06:33:49;;;;;;;;;;;;;;;14.60;56.10;93744.03;5000505;28;19949;-63
2023/04/04 06:36:18;;;;;;;;;;;;;;;14.67;55.91;93745.13;4986357;28;19988;-63
2023/04/04 06:38:46;;;;;;;;;;;;;;;14.68;55.84;93751.19;4983927;28;19940;-62
2023/04/04 06:41:16;;;;;;;;;;;;;;;14.57;55.89;93761.25;4991164;28;19984;-62
2023/04/04 06:43:45;;;;;;;;;;;;;;;14.04;56.99;93781.66;5009301;28;19945;-63
2023/04/04 06:46:12;;;;;;;;;;;;;;;13.21;55.93;93783.16;4972116;28;19950;-63
2023/04/04 06:48:38;;;;;;;;;;;;;;;12.77;55.49;93800.69;5003340;28;19963;-63
2023/04/04 06:51:06;;;;;;;;;;;;;;;12.22;55.46;93792.81;5008666;28;19948;-61
2023/04/04 06:53:34;;;;;;;;;;;;;;;11.87;54.89;93808.47;4978929;28;19949;-62
2023/04/04 06:56:01;;;;;;;;;;;;;;;10.86;55.20;93812.59;4983523;28;19962;-63
2023/04/04 06:58:27;;;;;;;;;;;;;;;11.61;54.67;93807.28;4986911;28;19935;-62
2023/04/04 07:00:55;;;;;;;;;;;;;;;11.14;54.81;93822.19;5009027;28;19942;-63
2023/04/04 07:03:24;;;;;;;;;;;;;;;11.08;54.56;93836.41;5008724;28;19948;-63
2023/04/04 07:05:51;;;;;;;;;;;;;;;11.49;53.13;93841.06;4991445;28;19995;-62
2023/04/04 07:08:17;;;;;;;;;;;;;;;10.89;55.35;93850.59;4995079;28;19969;-63
2023/04/04 07:10:46;;;;;;;;;;;;;;;10.49;55.09;93858.94;5008864;28;19954;-64
2023/04/04 07:13:13;;;;;;;;;;;;;;;10.71;54.38;93859.94;5010397;28;20378;-63
2023/04/04 07:15:40;;;;;;;;;;;;;;;10.62;54.67;93868.75;5013188;28;19958;-63
2023/04/04 07:18:07;;;;;;;;;;;;;;;10.37;55.30;93872.41;5011989;28;20047;-63
2023/04/04 07:20:35;;;;;;;;;;;;;;;10.16;55.12;93874.44;5012815;28;19951;-63
2023/04/04 07:23:02;;;;;;;;;;;;;;;9.80;55.33;93891.50;5012101;28;19959;-64
2023/04/04 07:25:28;;;;;;;;;;;;;;;9.60;55.19;93888.28;5012875;28;20406;-63
2023/04/04 07:27:55;;;;;;;;;;;;;;;10.28;53.69;93900.25;5011924;28;19949;-63
2023/04/04 07:30:38;;;;;;;;;;;;;;;9.51;54.32;93892.50;5012164;28;19953;-63
2023/04/04 07:33:05;;;;;;;;;;;;;;;9.65;53.97;93896.06;5011997;28;19944;-63
2023/04/04 07:35:31;;;;;;;;;;;;;;;9.79;53.58;93902.25;5001160;28;19951;-64
2023/04/04 07:37:58;;;;;;;;;;;;;;;9.44;53.85;93907.72;5010402;28;19939;-61
2023/04/04 07:40:26;;;;;;;;;;;;;;;9.43;53.51;93904.34;5012606;28;19950;-63
2023/04/04 07:42:53;;;;;;;;;;;;;;;9.36;53.98;93908.31;5011642;28;20048;-64
2023/04/04 07:45:23;;;;;;;;;;;;;;;9.13;54.32;93905.31;5012286;28;19945;-62
2023/04/04 07:47:50;;;;;;;;;;;;;;;9.03;54.33;93910.56;4999038;28;20001;-65
2023/04/04 07:50:17;;;;;;;;;;;;;;;9.06;53.66;93920.50;5011990;28;20407;-62
2023/04/04 07:52:47;;;;;;;;;;;;;;;8.75;53.90;93929.50;5011567;28;20344;-63
2023/04/04 07:55:14;;;;;;;;;;;;;;;8.94;53.70;93921.88;5008949;28;20378;-63
2023/04/04 07:57:43;;;;;;;;;;;;;;;9.11;52.91;93925.69;4972596;28;19993;-63
2023/04/04 08:00:10;;;;;;;;;;;;;;;8.61;54.02;93944.16;4972614;28;19961;-62
2023/04/04 08:02:42;;;;;;;;;;;;;;;9.07;52.52;93950.78;4972306;28;19967;-62
2023/04/04 08:05:09;;;;;;;;;;;;;;;8.97;52.34;93945.63;4974513;28;19976;-63
2023/04/04 08:07:35;;;;;;;;;;;;;;;8.79;53.47;93946.22;4991678;28;20020;-63
2023/04/04 08:10:02;;;;;;;;;;;;;;;9.04;52.65;93942.72;4974520;28;19945;-61
2023/04/04 08:12:29;;;;;;;;;;;;;;;9.36;52.69;93950.13;4991810;28;19944;-62
2023/04/04 08:14:56;;;;;;;;;;;;;;;8.73;54.59;93947.28;4992336;28;20096;-62
2023/04/04 08:17:22;;;;;;;;;;;;;;;8.69;54.18;93956.69;4992123;28;19978;-62
2023/04/04 08:19:49;;;;;;;;;;;;;;;8.86;54.00;93962.38;4992424;28;20276;-64
2023/04/04 08:22:16;;;;;;;;;;;;;;;8.83;54.21;93972.59;4991787;28;19930;-62
2023/04/04 08:24:43;;;;;;;;;;;;;;;8.25;54.48;93981.81;4991581;28;20689;-62
2023/04/04 08:27:10;;;;;;;;;;;;;;;8.50;54.48;93992.25;4991377;28;19930;-63
2023/04/04 08:29:37;;;;;;;;;;;;;;;8.52;54.59;93987.53;4992141;28;19939;-62
2023/04/04 08:32:04;;;;;;;;;;;;;;;8.72;54.17;93994.56;4991517;28;19925;-63
2023/04/04 08:34:30;;;;;;;;;;;;;;;8.88;54.04;93993.47;4991908;28;20402;-63
2023/04/04 08:36:58;;;;;;;;;;;;;;;8.72;54.24;93990.09;4991734;28;20385;-62
2023/04/04 08:39:26;;;;;;;;;;;;;;;8.51;54.48;94001.66;4991847;28;19957;-62
2023/04/04 08:41:57;;;;;;;;;;;;;;;8.31;53.88;94001.66;4992206;28;19953;-62
2023/04/04 08:44:25;;;;;;;;;;;;;;;7.90;54.52;94000.84;4991959;28;19949;-62
2023/04/04 08:46:52;;;;;;;;;;;;;;;8.49;53.68;93993.28;4991495;28;20016;-61
2023/04/04 08:49:21;;;;;;;;;;;;;;;8.35;53.37;94005.31;4991520;28;19953;-63
2023/04/04 08:51:48;;;;;;;;;;;;;;;8.36;53.21;94004.25;4991159;28;19926;-64
2023/04/04 08:54:16;;;;;;;;;;;;;;;8.28;53.22;94009.25;4991031;28;19933;-62
2023/04/04 08:56:43;;;;;;;;;;;;;;;8.01;54.03;94017.31;4990501;28;19946;-61
2023/04/04 08:59:14;;;;;;;;;;;;;;;8.41;53.68;94027.75;4990868;28;20009;-61
2023/04/04 09:01:41;;;;;;;;;;;;;;;8.36;52.87;94025.16;4996110;28;19950;-62
2023/04/04 09:04:09;;;;;;;;;;;;;;;8.29;53.86;94024.63;5008620;28;20370;-61
2023/04/04 09:06:36;;;;;;;;;;;;;;;8.23;53.96;94047.31;4994077;28;19930;-62
2023/04/04 09:09:03;;;;;;;;;;;;;;;8.19;54.49;94033.22;4991129;28;19972;-62
2023/04/04 09:11:30;;;;;;;;;;;;;;;8.27;54.94;94042.38;4990563;28;19933;-62
2023/04/04 09:13:57;;;;;;;;;;;;;;;7.69;55.41;94040.19;4991987;28;19930;-63
2023/04/04 09:16:25;;;;;;;;;;;;;;;8.19;55.01;94046.25;4990363;28;19984;-64
2023/04/04 09:18:51;;;;;;;;;;;;;;;8.43;54.73;94043.94;4990939;28;20021;-62
2023/04/04 09:21:18;;;;;;;;;;;;;;;8.38;53.38;94041.34;4990274;28;19941;-64
2023/04/04 09:23:45;;;;;;;;;;;;;;;8.18;54.46;94044.69;4990886;28;20025;-63
2023/04/04 09:26:15;;;;;;;;;;;;;;;8.20;54.52;94041.81;4990023;28;19996;-62
2023/04/04 09:28:42;;;;;;;;;;;;;;;8.20;54.29;94032.19;4990848;28;19976;-62
2023/04/04 09:31:10;;;;;;;;;;;;;;;7.76;55.21;94038.13;4988959;28;19950;-62
2023/04/04 09:33:37;;;;;;;;;;;;;;;7.75;55.60;94049.59;4991170;28;20483;-66
2023/04/04 09:36:06;;;;;;;;;;;;;;;7.89;56.01;94053.28;4990077;28;20423;-62
2023/04/04 09:38:35;;;;;;;;;;;;;;;7.68;55.86;94049.06;4991093;28;19976;-62
2023/04/04 09:41:04;;;;;;;;;;;;;;;7.67;56.51;94047.50;4990303;28;19954;-63
2023/04/04 09:43:31;;;;;;;;;;;;;;;7.96;55.33;94051.19;4990188;28;19989;-65
2023/04/04 09:46:01;;;;;;;;;;;;;;;8.07;55.81;94047.56;4990225;28;19949;-63
2023/04/04 09:48:32;;;;;;;;;;;;;;;8.56;54.80;94050.47;4990274;28;19954;-61
2023/04/04 09:51:02;;;;;;;;;;;;;;;8.40;54.28;94041.84;4988292;28;20407;-63
2023/04/04 09:53:29;;;;;;;;;;;;;;;8.17;54.51;94050.94;4990033;28;19946;-61
2023/04/04 09:55:56;;;;;;;;;;;;;;;8.65;54.44;94047.03;4990075;28;19960;-61
2023/04/04 09:58:27;;;;;;;;;;;;;;;8.81;53.78;94059.03;4990202;28;20409;-61
2023/04/04 10:00:55;;;;;;;;;;;;;;;8.56;53.93;94051.22;4990147;28;19948;-62
2023/04/04 10:03:23;;;;;;;;;;;;;;;8.40;53.22;94057.50;4989657;28;19983;-66
2023/04/04 10:05:59;;;;;;;;;;;;;;;8.83;53.32;94064.00;4990176;28;20055;-62
2023/04/04 10:08:27;;;;;;;;;;;;;;;8.82;52.97;94052.78;4990298;28;19957;-62
2023/04/04 10:10:57;;;;;;;;;;;;;;;9.30;51.51;94068.84;4989636;28;19961;-62
2023/04/04 10:13:39;;;;;;;;;;;;;;;9.15;52.69;94062.63;4990120;28;19955;-65
2023/04/04 10:16:09;;;;;;;;;;;;;;;9.71;51.82;94057.13;4989303;28;19953;-64
2023/04/04 10:18:36;;;;;;;;;;;;;;;9.28;51.46;94079.56;4989878;28;20043;-64
2023/04/04 10:21:04;;;;;;;;;;;;;;;9.49;51.21;94069.81;4989683;28;19959;-62
2023/04/04 10:23:44;;;;;;;;;;;;;;;8.60;51.98;94078.38;4989736;28;19943;-62
2023/04/04 10:26:11;;;;;;;;;;;;;;;7.95;52.19;94086.16;4989218;28;19926;-62
2023/04/04 10:28:38;;;;;;;;;;;;;;;8.83;51.81;94085.66;4989632;28;19937;-63
2023/04/04 10:31:16;;;;;;;;;;;;;;;8.80;51.76;94088.81;4989164;28;19980;-64
2023/04/04 10:34:02;;;;;;;;;;;;;;;8.80;51.21;94095.84;4990248;28;20012;-61
2023/04/04 10:36:37;;;;;;;;;;;;;;;8.53;52.22;94103.97;4989613;28;19957;-65
2023/04/04 10:39:10;;;;;;;;;;;;;;;8.68;50.65;94093.53;4989638;28;19954;-66
2023/04/04 10:41:38;;;;;;;;;;;;;;;8.26;52.22;94098.22;4989750;28;20010;-62
2023/04/04 10:44:11;;;;;;;;;;;;;;;8.37;51.79;94099.81;4989595;28;19950;-62
2023/04/04 10:46:40;;;;;;;;;;;;;;;8.46;52.07;94106.06;4989557;28;19949;-63
2023/04/04 10:49:07;;;;;;;;;;;;;;;9.00;51.10;94104.47;4992490;28;19964;-62
2023/04/04 10:51:35;;;;;;;;;;;;;;;9.17;51.26;94109.38;4993723;28;19985;-61
2023/04/04 10:54:19;;;;;;;;;;;;;;;8.11;50.94;94108.63;4993288;28;20418;-64
2023/04/04 10:56:46;;;;;;;;;;;;;;;8.23;52.33;94114.34;4993244;28;20053;-61
2023/04/04 10:59:14;;;;;;;;;;;;;;;8.60;51.69;94120.16;4993020;28;19994;-64
2023/04/04 11:01:57;;;;;;;;;;;;;;;8.53;51.90;94119.66;4993152;28;19957;-61
2023/04/04 11:04:30;;;;;;;;;;;;;;;8.54;52.34;94117.84;4993382;28;20470;-62
2023/04/04 11:07:09;;;;;;;;;;;;;;;8.51;52.51;94126.97;4992467;28;20467;-62
2023/04/04 11:09:49;;;;;;;;;;;;;;;8.56;51.31;94118.34;4993297;28;19962;-62
2023/04/04 11:12:22;;;;;;;;;;;;;;;8.75;52.07;94117.56;4992795;28;20028;-62
2023/04/04 11:14:55;;;;;;;;;;;;;;;8.61;51.75;94129.56;4993584;28;19934;-62
2023/04/04 11:17:39;;;;;;;;;;;;;;;8.39;52.21;94129.03;4992747;28;20013;-62
2023/04/04 11:20:09;;;;;;;;;;;;;;;8.66;51.80;94123.56;4992551;28;20037;-62
2023/04/04 11:22:36;;;;;;;;;;;;;;;8.55;51.37;94128.00;4992455;28;19942;-65
2023/04/04 11:25:22;;;;;;;;;;;;;;;8.38;51.91;94132.69;4992646;28;19956;-62
2023/04/04 11:27:50;;;;;;;;;;;;;;;8.30;52.95;94135.81;4975070;28;19976;-63
2023/04/04 11:30:17;;;;;;;;;;;;;;;8.30;52.00;94141.03;4975397;28;20376;-64
2023/04/04 11:32:47;;;;;;;;;;;;;;;8.76;51.09;94141.81;4992458;28;19953;-61
2023/04/04 11:35:29;;;;;;;;;;;;;;;8.22;51.99;94144.13;4977474;28;19953;-61
2023/04/04 11:37:56;;;;;;;;;;;;;;;8.58;51.94;94137.91;4992423;28;20455;-62
2023/04/04 11:40:37;;;;;;;;;;;;;;;8.41;52.06;94145.22;4992721;28;19974;-60
2023/04/04 11:43:11;;;;;;;;;;;;;;;8.23;51.72;94141.25;4992359;28;20010;-64
2023/04/04 11:45:44;;;;;;;;;;;;;;;8.49;51.50;94147.31;4992581;28;19988;-62
2023/04/04 11:48:11;;;;;;;;;;;;;;;7.96;52.62;94139.88;4992304;28;19956;-63
2023/04/04 11:50:39;;;;;;;;;;;;;;;8.39;51.21;94144.72;4991972;28;20434;-63
2023/04/04 11:53:07;;;;;;;;;;;;;;;8.65;50.59;94153.34;4992076;28;19990;-62
2023/04/04 11:55:38;;;;;;;;;;;;;;;8.44;50.84;94141.31;4992589;28;20076;-62
2023/04/04 11:58:08;;;;;;;;;;;;;;;8.51;50.54;94142.63;4992052;28;20387;-63
2023/04/04 12:00:38;;;;;;;;;;;;;;;8.62;50.40;94148.63;4997854;28;20485;-61
2023/04/04 12:03:12;;;;;;;;;;;;;;;8.44;50.54;94142.09;4998785;28;19984;-63
2023/04/04 12:05:41;;;;;;;;;;;;;;;8.63;49.75;94147.59;4992013;28;19948;-60
2023/04/04 12:08:09;;;;;;;;;;;;;;;8.65;50.08;94148.13;4992129;28;19976;-62
2023/04/04 12:10:37;;;;;;;;;;;;;;;8.43;50.04;94150.97;4992243;28;19960;-64
2023/04/04 12:13:06;;;;;;;;;;;;;;;8.38;49.95;94148.34;4991611;28;19994;-62
2023/04/04 12:15:36;;;;;;;;;;;;;;;7.60;50.90;94152.03;4992869;28;19946;-62
2023/04/04 12:18:07;;;;;;;;;;;;;;;8.60;50.39;94155.94;4992609;28;19958;-63
2023/04/04 12:20:37;;;;;;;;;;;;;;;8.29;50.62;94155.13;4992607;28;20287;-62
2023/04/04 12:23:03;;;;;;;;;;;;;;;8.13;51.26;94159.50;4991713;28;19958;-62
2023/04/04 12:25:32;;;;;;;;;;;;;;;8.04;50.76;94168.09;4992148;28;19950;-64
2023/04/04 12:28:02;;;;;;;;;;;;;;;7.51;51.60;94163.19;4991604;28;19957;-63
2023/04/04 12:30:29;;;;;;;;;;;;;;;7.44;51.40;94163.44;4991707;28;19961;-65
2023/04/04 12:32:55;;;;;;;;;;;;;;;7.96;50.94;94160.75;4991301;28;20356;-62
2023/04/04 12:35:22;;;;;;;;;;;;;;;7.82;51.07;94162.28;4992130;28;20335;-64
2023/04/04 12:37:55;;;;;;;;;;;;;;;7.51;52.19;94155.38;4991412;28;20502;-63
2023/04/04 12:40:22;;;;;;;;;;;;;;;7.52;51.99;94164.78;4991813;28;20035;-64
2023/04/04 12:42:49;;;;;;;;;;;;;;;7.46;52.11;94169.19;4990587;28;20541;-63
2023/04/04 12:45:20;;;;;;;;;;;;;;;7.82;51.94;94170.09;4991632;28;19964;-62
2023/04/04 12:47:53;;;;;;;;;;;;;;;7.73;52.11;94169.03;4990972;28;19976;-62
2023/04/04 12:50:26;;;;;;;;;;;;;;;7.12;53.34;94166.09;4991446;28;20407;-63
2023/04/04 12:52:53;;;;;;;;;;;;;;;7.51;52.49;94173.63;4990841;28;19942;-63
2023/04/04 12:55:30;;;;;;;;;;;;;;;7.85;52.39;94180.00;4990492;28;19952;-62
2023/04/04 12:57:59;;;;;;;;;;;;;;;7.36;52.87;94176.13;4991026;28;19955;-64
2023/04/04 13:00:26;;;;;;;;;;;;;;;7.52;52.04;94170.75;4991574;28;20012;-63